createdAt,value
2023-05-21T00:03:38.025Z,100.00
2023-05-21T00:07:35.964Z,100.00
2023-05-21T00:11:34.016Z,100.00
2023-05-21T00:15:32.032Z,100.00
2023-05-21T00:19:30.005Z,100.00
2023-05-21T00:23:27.992Z,100.00
2023-05-21T00:27:25.942Z,100.00
2023-05-21T00:31:23.994Z,100.00
2023-05-21T00:35:21.964Z,100.00
2023-05-21T00:39:19.921Z,100.00
2023-05-21T00:43:17.897Z,100.00
2023-05-21T00:47:16.908Z,100.00
2023-05-21T00:51:14.993Z,100.00
2023-05-21T00:55:12.910Z,100.00
2023-05-21T00:59:11.922Z,100.00
2023-05-21T01:03:10.001Z,100.00
2023-05-21T01:07:08.875Z,100.00
2023-05-21T01:11:07.871Z,100.00
2023-05-21T01:15:06.938Z,100.00
2023-05-21T01:19:04.948Z,100.00
2023-05-21T01:23:08.878Z,100.00
2023-05-21T01:27:06.829Z,100.00
2023-05-21T01:31:04.856Z,100.00
2023-05-21T01:35:34.991Z,100.00
2023-05-21T01:39:42.848Z,100.00
2023-05-21T01:43:43.843Z,100.00
2023-05-21T01:47:45.848Z,100.00
2023-05-21T01:51:43.826Z,100.00
2023-05-21T01:55:42.018Z,100.00
2023-05-21T01:59:39.809Z,100.00
2023-05-21T02:03:39.873Z,100.00
2023-05-21T02:07:38.802Z,100.00
2023-05-21T02:11:36.825Z,100.00
2023-05-21T02:15:35.228Z,100.00
2023-05-21T02:19:34.014Z,100.00
2023-05-21T02:23:31.793Z,100.00
2023-05-21T02:27:29.846Z,100.00
2023-05-21T02:31:27.769Z,100.00
2023-05-21T02:35:27.865Z,100.00
2023-05-21T02:39:25.761Z,100.00
2023-05-21T02:43:23.794Z,100.00
2023-05-21T02:47:21.744Z,100.00
2023-05-21T02:51:19.924Z,100.00
2023-05-21T02:55:17.824Z,100.00
2023-05-21T02:59:15.838Z,100.00
2023-05-21T03:03:13.809Z,100.00
2023-05-21T03:07:11.771Z,100.00
2023-05-21T03:11:09.786Z,100.00
2023-05-21T03:15:07.783Z,100.00
2023-05-21T03:19:05.839Z,100.00
2023-05-21T03:23:03.746Z,100.00
2023-05-21T03:27:01.714Z,100.00
2023-05-21T03:30:59.738Z,100.00
2023-05-21T03:35:14.711Z,100.00
2023-05-21T03:39:12.687Z,99.51
2023-05-21T03:43:10.703Z,94.80
2023-05-21T03:47:08.741Z,90.12
2023-05-21T03:51:06.688Z,87.94
2023-05-21T03:55:04.722Z,84.06
2023-05-21T03:59:22.687Z,80.70
2023-05-21T04:03:20.988Z,79.80
2023-05-21T04:07:21.680Z,77.95
2023-05-21T04:11:19.693Z,76.02
2023-05-21T04:15:17.664Z,73.81
2023-05-21T04:19:15.778Z,73.01
2023-05-21T04:23:13.672Z,71.84
2023-05-21T04:27:11.693Z,71.20
2023-05-21T04:31:09.725Z,70.37
2023-05-21T04:35:07.738Z,68.84
2023-05-21T04:39:05.662Z,67.85
2023-05-21T04:43:03.674Z,67.26
2023-05-21T04:47:01.736Z,66.87
2023-05-21T04:51:01.632Z,67.77
2023-05-21T04:55:00.692Z,67.49
2023-05-21T04:58:58.765Z,67.10
2023-05-21T05:02:57.753Z,67.21
2023-05-21T05:06:55.803Z,67.25
2023-05-21T05:10:53.618Z,67.63
2023-05-21T05:14:51.642Z,67.16
2023-05-21T05:18:49.645Z,67.40
2023-05-21T05:22:47.623Z,68.63
2023-05-21T05:26:45.647Z,69.05
2023-05-21T05:30:43.685Z,71.15
2023-05-21T05:34:47.606Z,72.64
2023-05-21T05:38:45.616Z,73.14
2023-05-21T05:42:43.588Z,73.13
2023-05-21T05:46:41.636Z,74.68
2023-05-21T05:50:39.633Z,75.64
2023-05-21T05:54:38.615Z,75.84
2023-05-21T05:58:29.678Z,77.28
2023-05-21T06:02:33.696Z,78.35
2023-05-21T06:06:31.615Z,79.19
2023-05-21T06:10:29.671Z,80.77
2023-05-21T06:14:27.563Z,81.28
2023-05-21T06:18:25.650Z,82.60
2023-05-21T06:22:25.465Z,81.82
2023-05-21T06:26:25.557Z,82.95
2023-05-21T06:30:23.810Z,81.70
2023-05-21T06:34:21.548Z,81.40
2023-05-21T06:38:19.555Z,80.77
2023-05-21T06:42:17.528Z,78.63
2023-05-21T06:46:37.598Z,80.27
2023-05-21T06:50:35.577Z,80.46
2023-05-21T06:54:33.534Z,78.75
2023-05-21T06:58:31.557Z,78.75
2023-05-21T07:02:29.762Z,78.60
2023-05-21T07:06:28.538Z,79.40
2023-05-21T07:10:26.566Z,79.66
2023-05-21T07:14:24.532Z,81.34
2023-05-21T07:18:23.575Z,78.86
2023-05-21T07:22:25.982Z,78.68
2023-05-21T07:26:25.500Z,78.20
2023-05-21T07:30:24.629Z,78.38
2023-05-21T07:34:22.495Z,77.81
2023-05-21T07:38:20.512Z,77.69
2023-05-21T07:42:18.489Z,78.80
2023-05-21T07:46:16.598Z,80.20
2023-05-21T07:50:16.511Z,80.49
2023-05-21T07:54:14.505Z,78.40
2023-05-21T07:58:12.469Z,77.87
2023-05-21T08:02:10.506Z,76.78
2023-05-21T08:06:08.468Z,75.22
2023-05-21T08:10:06.455Z,72.82
2023-05-21T08:14:04.515Z,72.54
2023-05-21T08:18:02.550Z,71.49
2023-05-21T08:22:00.458Z,69.73
2023-05-21T08:26:02.476Z,70.82
2023-05-21T08:30:00.430Z,71.01
2023-05-21T08:34:09.556Z,69.30
2023-05-21T08:38:05.600Z,69.97
2023-05-21T08:42:40.445Z,69.71
2023-05-21T08:46:47.439Z,68.09
2023-05-21T08:50:46.495Z,68.73
2023-05-21T08:54:50.462Z,68.14
2023-05-21T08:58:49.508Z,68.58
2023-05-21T09:02:53.427Z,64.05
2023-05-21T09:06:51.450Z,61.50
2023-05-21T09:11:12.379Z,58.98
2023-05-21T09:15:16.414Z,59.14
2023-05-21T09:19:14.457Z,59.57
2023-05-21T09:23:19.495Z,58.23
2023-05-21T09:27:21.387Z,59.14
2023-05-21T09:31:32.443Z,58.38
2023-05-21T09:35:30.366Z,59.74
2023-05-21T09:39:42.465Z,58.94
2023-05-21T09:43:40.364Z,57.39
2023-05-21T09:47:40.398Z,57.55
2023-05-21T09:51:38.405Z,56.69
2023-05-21T09:55:41.389Z,55.71
2023-05-21T09:59:49.367Z,55.28
2023-05-21T10:03:51.437Z,51.43
2023-05-21T10:07:50.345Z,49.68
2023-05-21T10:11:49.378Z,50.71
2023-05-21T10:15:53.346Z,50.78
2023-05-21T10:19:52.341Z,50.95
2023-05-21T10:23:52.366Z,51.89
2023-05-21T10:27:51.390Z,49.22
2023-05-21T10:31:50.413Z,47.95
2023-05-21T10:35:48.356Z,47.62
2023-05-21T10:39:47.394Z,48.14
2023-05-21T10:43:57.388Z,50.24
2023-05-21T10:48:14.357Z,49.64
2023-05-21T10:52:17.477Z,50.05
2023-05-21T10:56:32.332Z,49.65
2023-05-21T11:00:32.370Z,48.27
2023-05-21T11:04:30.356Z,48.01
2023-05-21T11:08:42.338Z,46.53
2023-05-21T11:12:40.345Z,44.57
2023-05-21T11:16:38.370Z,45.05
2023-05-21T11:20:36.536Z,47.07
2023-05-21T11:24:35.299Z,46.49
2023-05-21T11:28:47.279Z,47.13
2023-05-21T11:32:45.362Z,47.13
2023-05-21T11:36:43.289Z,47.34
2023-05-21T11:40:41.297Z,46.70
2023-05-21T11:44:58.278Z,46.98
2023-05-21T11:48:59.378Z,45.69
2023-05-21T11:52:57.273Z,45.56
2023-05-21T11:56:55.271Z,44.32
2023-05-21T12:00:54.234Z,42.93
2023-05-21T12:04:52.314Z,41.24
2023-05-21T12:08:50.268Z,42.15
2023-05-21T12:12:55.652Z,40.04
2023-05-21T12:16:55.334Z,40.87
2023-05-21T12:20:53.322Z,40.21
2023-05-21T12:24:52.217Z,39.86
2023-05-21T12:28:50.351Z,39.58
2023-05-21T12:32:49.338Z,38.18
2023-05-21T12:36:47.229Z,37.10
2023-05-21T12:40:52.249Z,38.70
2023-05-21T12:44:50.269Z,39.24
2023-05-21T12:48:27.837Z,38.82
2023-05-21T12:51:51.760Z,39.15
2023-05-21T12:55:16.193Z,40.25
2023-05-21T12:58:41.228Z,39.25
2023-05-21T13:02:05.517Z,38.94
2023-05-21T13:05:29.612Z,40.05
2023-05-21T13:08:55.826Z,39.14
2023-05-21T13:12:23.774Z,39.21
2023-05-21T13:15:49.585Z,39.44
2023-05-21T13:19:15.458Z,39.54
2023-05-21T13:22:42.683Z,39.71
2023-05-21T13:26:06.762Z,38.29
2023-05-21T13:29:30.820Z,38.27
2023-05-21T13:32:55.021Z,38.20
2023-05-21T13:36:19.223Z,37.35
2023-05-21T13:39:43.594Z,36.49
2023-05-21T13:43:07.461Z,34.58
2023-05-21T13:46:31.812Z,34.11
2023-05-21T13:49:55.903Z,32.90
2023-05-21T13:53:19.837Z,34.06
2023-05-21T13:56:43.716Z,34.62
2023-05-21T14:00:09.339Z,33.71
2023-05-21T14:03:34.454Z,34.09
2023-05-21T14:06:58.937Z,32.87
2023-05-21T14:10:23.351Z,33.82
2023-05-21T14:13:48.307Z,32.67
2023-05-21T14:17:12.340Z,31.39
2023-05-21T14:20:36.688Z,31.32
2023-05-21T14:24:00.585Z,30.93
2023-05-21T14:27:24.409Z,30.39
2023-05-21T14:30:48.511Z,32.27
2023-05-21T14:34:12.382Z,32.80
2023-05-21T14:37:36.198Z,32.45
2023-05-21T14:41:00.178Z,34.00
2023-05-21T14:44:24.066Z,33.34
2023-05-21T14:47:49.115Z,33.25
2023-05-21T14:51:13.561Z,33.62
2023-05-21T14:54:38.220Z,33.17
2023-05-21T14:58:03.290Z,33.23
2023-05-21T15:01:32.267Z,33.50
2023-05-21T15:04:56.904Z,33.09
2023-05-21T15:08:20.832Z,33.55
2023-05-21T15:11:46.187Z,33.03
2023-05-21T15:15:10.630Z,32.40
2023-05-21T15:18:35.128Z,32.79
2023-05-21T15:21:59.017Z,31.80
2023-05-21T15:25:22.941Z,32.25
2023-05-21T15:28:47.288Z,32.84
2023-05-21T15:32:11.209Z,32.85
2023-05-21T15:35:36.842Z,32.42
2023-05-21T15:39:03.575Z,32.22
2023-05-21T15:42:31.322Z,31.86
2023-05-21T15:45:55.267Z,32.51
2023-05-21T15:49:19.190Z,32.90
2023-05-21T15:52:43.284Z,32.86
2023-05-21T15:56:09.148Z,33.41
2023-05-21T15:59:32.986Z,34.12
2023-05-21T16:02:57.018Z,35.00
2023-05-21T16:06:21.050Z,34.94
2023-05-21T16:09:45.203Z,35.64
2023-05-21T16:13:09.223Z,35.59
2023-05-21T16:16:33.210Z,36.18
2023-05-21T16:19:57.411Z,36.33
2023-05-21T16:23:21.461Z,37.20
2023-05-21T16:26:46.125Z,37.64
2023-05-21T16:30:11.953Z,36.87
2023-05-21T16:33:36.106Z,36.49
2023-05-21T16:37:00.004Z,37.37
2023-05-21T16:40:24.018Z,37.55
2023-05-21T16:43:48.072Z,37.71
2023-05-21T16:47:11.956Z,37.35
2023-05-21T16:50:36.877Z,37.54
2023-05-21T16:54:02.883Z,37.69
2023-05-21T16:57:26.736Z,38.08
2023-05-21T17:00:50.758Z,38.73
2023-05-21T17:04:14.953Z,39.01
2023-05-21T17:07:39.372Z,39.71
2023-05-21T17:11:03.494Z,39.97
2023-05-21T17:14:34.488Z,40.31
2023-05-21T17:17:59.182Z,40.39
2023-05-21T17:21:23.128Z,41.19
2023-05-21T17:24:47.094Z,41.71
2023-05-21T17:28:11.343Z,41.86
2023-05-21T17:31:35.631Z,42.18
2023-05-21T17:34:59.562Z,42.76
2023-05-21T17:38:23.783Z,43.09
2023-05-21T17:41:57.171Z,43.90
2023-05-21T17:45:21.423Z,44.44
2023-05-21T17:48:46.323Z,44.88
2023-05-21T17:52:10.367Z,44.95
2023-05-21T17:55:34.579Z,45.35
2023-05-21T17:58:58.890Z,45.77
2023-05-21T18:02:23.636Z,46.30
2023-05-21T18:05:47.589Z,46.80
2023-05-21T18:09:14.414Z,47.20
2023-05-21T18:12:38.660Z,47.88
2023-05-21T18:16:02.490Z,48.37
2023-05-21T18:19:27.009Z,48.52
2023-05-21T18:22:51.026Z,48.84
2023-05-21T18:26:16.832Z,49.17
2023-05-21T18:29:40.755Z,49.58
2023-05-21T18:33:04.835Z,49.87
2023-05-21T18:36:29.132Z,50.39
2023-05-21T18:39:53.002Z,50.50
2023-05-21T18:43:17.846Z,50.74
2023-05-21T18:46:42.384Z,50.99
2023-05-21T18:50:15.874Z,51.15
2023-05-21T18:53:40.564Z,51.27
2023-05-21T18:57:04.515Z,51.48
2023-05-21T19:00:28.860Z,51.72
2023-05-21T19:03:53.114Z,51.69
2023-05-21T19:07:17.165Z,51.99
2023-05-21T19:10:41.353Z,52.30
2023-05-21T19:14:05.835Z,52.22
2023-05-21T19:17:29.895Z,52.40
2023-05-21T19:20:53.770Z,52.80
2023-05-21T19:24:17.676Z,52.71
2023-05-21T19:27:41.563Z,52.99
2023-05-21T19:31:05.597Z,53.39
2023-05-21T19:34:29.610Z,53.57
2023-05-21T19:37:54.655Z,54.12
2023-05-21T19:41:20.099Z,54.34
2023-05-21T19:44:44.125Z,54.53
2023-05-21T19:48:08.353Z,55.04
2023-05-21T19:51:32.676Z,55.05
2023-05-21T19:55:04.458Z,55.21
2023-05-21T19:58:30.628Z,55.36
2023-05-21T20:01:54.976Z,55.50
2023-05-21T20:05:20.136Z,55.71
2023-05-21T20:08:44.358Z,55.72
2023-05-21T20:12:09.802Z,55.85
2023-05-21T20:15:34.728Z,56.03
2023-05-21T20:19:01.780Z,56.11
2023-05-21T20:22:26.005Z,56.35
2023-05-21T20:25:50.494Z,56.69
2023-05-21T20:29:14.742Z,56.86
2023-05-21T20:32:38.734Z,56.95
2023-05-21T20:36:04.278Z,57.25
2023-05-21T20:39:29.600Z,57.70
2023-05-21T20:42:54.262Z,57.83
2023-05-21T20:46:19.017Z,58.05
2023-05-21T20:49:43.939Z,58.29
2023-05-21T20:53:07.905Z,58.46
2023-05-21T20:59:59.189Z,59.04
2023-05-21T21:03:23.803Z,59.33
2023-05-21T21:06:48.418Z,59.60
2023-05-21T21:10:12.736Z,60.02
2023-05-21T21:13:37.414Z,60.42
2023-05-21T21:17:01.860Z,60.88
2023-05-21T21:20:26.607Z,61.03
2023-05-21T21:23:51.197Z,61.39
2023-05-21T21:27:15.359Z,61.53
2023-05-21T21:30:41.340Z,61.70
2023-05-21T21:34:05.551Z,62.03
2023-05-21T21:37:29.912Z,62.45
2023-05-21T21:40:54.586Z,62.76
2023-05-21T21:44:18.885Z,63.07
2023-05-21T21:47:42.930Z,63.10
2023-05-21T21:51:08.322Z,63.17
2023-05-21T21:54:32.443Z,63.45
2023-05-21T21:57:56.887Z,63.48
2023-05-21T22:01:21.097Z,63.67
2023-05-21T22:04:46.696Z,64.98
2023-05-21T22:08:11.184Z,66.18
2023-05-21T22:11:35.305Z,66.73
2023-05-21T22:15:04.590Z,67.31
2023-05-21T22:18:40.331Z,68.29
2023-05-21T22:22:25.698Z,68.57
2023-05-21T22:26:24.740Z,69.24
2023-05-21T22:30:22.693Z,70.13
2023-05-21T22:34:20.711Z,70.88
2023-05-21T22:38:18.648Z,71.63
2023-05-21T22:42:16.705Z,72.95
2023-05-21T22:46:14.706Z,73.38
2023-05-21T22:50:12.677Z,74.64
2023-05-21T22:54:10.666Z,74.85
2023-05-21T22:58:08.672Z,76.22
2023-05-21T23:02:06.688Z,77.32
2023-05-21T23:06:04.667Z,76.94
2023-05-21T23:10:02.632Z,77.15
2023-05-21T23:14:00.659Z,77.60
2023-05-21T23:17:58.611Z,77.80
2023-05-21T23:21:57.694Z,78.20
2023-05-21T23:25:55.638Z,79.59
2023-05-21T23:29:53.635Z,80.54
2023-05-21T23:33:51.638Z,81.15
2023-05-21T23:37:49.633Z,82.85
2023-05-21T23:41:47.584Z,82.98
2023-05-21T23:45:45.720Z,83.78
2023-05-21T23:49:43.569Z,84.79
2023-05-21T23:53:41.602Z,86.07
2023-05-21T23:57:39.611Z,87.45
